Time;durP1;ratioP1;P1;durP2;ratioP2;P2;SDS_P1;SDS_P2;PMS_P1;PMS_P2;Temp;Humidity;BMP_temperature;BMP_pressure;BME280_temperature;BME280_humidity;BME280_pressure;Samples;Min_cycle;Max_cycle;Signal;HPM_P1;HPM_P2
2022/12/29 00:00:00;;;;;;;14.70;12.48;;;;;;;6.58;nan;95978.47;5044572;28;20202;-60
2022/12/29 00:02:27;;;;;;;15.35;12.68;;;;;;;6.58;nan;95977.63;5045310;28;20202;-59
2022/12/29 00:04:54;;;;;;;16.48;13.50;;;;;;;6.70;nan;95983.47;5046371;28;20209;-59
2022/12/29 00:07:21;;;;;;;19.27;13.00;;;;;;;6.72;nan;95973.34;5045739;28;20209;-61
2022/12/29 00:09:47;;;;;;;20.13;13.50;;;;;;;6.75;nan;95971.66;5047254;28;20206;-60
2022/12/29 00:12:14;;;;;;;20.42;15.00;;;;;;;6.70;nan;95980.09;5049584;28;20640;-59
2022/12/29 00:17:27;;;;;;;18.95;14.77;;;;;;;6.74;nan;95972.50;5049953;28;20224;-60
2022/12/29 00:36:26;;;;;;;21.95;13.82;;;;;;;6.84;nan;95998.56;5045823;28;22523;-58
2022/12/29 00:44:26;;;;;;;17.95;13.45;;;;;;;7.17;nan;96002.63;5048045;28;20204;-59
2022/12/29 00:46:54;;;;;;;17.73;14.00;;;;;;;7.21;nan;96004.28;5048692;28;20212;-61
2022/12/29 00:49:32;;;;;;;15.75;13.00;;;;;;;7.00;nan;95997.66;5047687;28;20690;-59
2022/12/29 00:52:02;;;;;;;19.67;14.48;;;;;;;6.93;nan;96008.63;5044854;28;20200;-59
2022/12/29 00:54:30;;;;;;;23.73;14.13;;;;;;;6.86;nan;96004.47;5047276;28;20226;-60
2022/12/29 00:56:57;;;;;;;20.85;14.43;;;;;;;6.69;nan;96004.50;5049283;28;20705;-59
2022/12/29 00:59:24;;;;;;;20.52;14.18;;;;;;;6.63;nan;96007.09;5048281;28;20194;-59
2022/12/29 01:01:52;;;;;;;23.70;14.40;;;;;;;6.59;nan;96005.41;5048362;28;20220;-59
2022/12/29 01:04:21;;;;;;;17.17;13.13;;;;;;;6.66;nan;95991.06;5049137;28;20210;-60
2022/12/29 01:06:48;;;;;;;19.67;13.65;;;;;;;6.67;nan;95998.66;5047689;28;20213;-59
2022/12/29 01:12:00;;;;;;;21.08;14.57;;;;;;;6.85;nan;95996.91;5048269;28;20297;-58
2022/12/29 01:14:27;;;;;;;21.88;15.15;;;;;;;6.75;nan;95991.88;5048329;28;20248;-59
2022/12/29 01:16:55;;;;;;;23.90;14.63;;;;;;;6.65;nan;95985.19;5045666;28;20215;-58
2022/12/29 01:19:24;;;;;;;23.88;16.67;;;;;;;6.68;nan;95991.91;5045249;28;20279;-59
2022/12/29 01:21:51;;;;;;;20.90;16.02;;;;;;;6.65;nan;95985.19;5046001;28;20228;-58
2022/12/29 01:24:19;;;;;;;20.17;15.30;;;;;;;6.62;nan;95990.25;5047588;28;20258;-59
2022/12/29 01:26:47;;;;;;;24.00;16.00;;;;;;;6.65;nan;95985.19;5047619;28;20205;-58
2022/12/29 01:29:13;;;;;;;19.40;14.60;;;;;;;6.71;nan;95990.19;5045089;28;20619;-59
2022/12/29 01:31:40;;;;;;;24.75;16.88;;;;;;;6.64;nan;95986.03;5046607;28;20201;-59
2022/12/29 01:34:07;;;;;;;23.33;15.32;;;;;;;6.62;nan;95985.19;5047580;28;20225;-60
2022/12/29 01:36:35;;;;;;;19.33;14.73;;;;;;;6.66;nan;95976.75;5047825;28;20202;-59
2022/12/29 01:39:02;;;;;;;20.88;14.65;;;;;;;6.52;nan;95975.97;5045532;28;20210;-58
2022/12/29 01:41:30;;;;;;;20.98;15.90;;;;;;;6.62;nan;95971.72;5046496;28;20205;-58
2022/12/29 01:43:59;;;;;;;21.50;14.88;;;;;;;6.73;nan;95970.81;5046360;28;20292;-60
2022/12/29 01:46:29;;;;;;;19.23;15.18;;;;;;;6.88;nan;95966.56;5022523;28;20229;-60
2022/12/29 01:49:03;;;;;;;18.15;14.43;;;;;;;6.78;nan;95968.28;5017746;28;20889;-62
2022/12/29 01:51:34;;;;;;;16.92;13.82;;;;;;;6.47;nan;95965.88;5020250;28;20251;-59
2022/12/29 01:54:04;;;;;;;19.42;13.70;;;;;;;6.30;nan;95951.63;5020823;28;20643;-60
2022/12/29 01:56:31;;;;;;;23.45;14.02;;;;;;;6.32;nan;95967.59;5020479;28;20252;-61
2022/12/29 01:59:06;;;;;;;16.55;13.88;;;;;;;6.22;nan;95968.47;5019531;28;20745;-58
2022/12/29 02:01:33;;;;;;;18.38;13.70;;;;;;;6.29;nan;95960.03;5020417;28;20210;-61
2022/12/29 02:04:00;;;;;;;22.00;15.40;;;;;;;6.23;nan;95955.00;5020963;28;20271;-60
2022/12/29 02:06:31;;;;;;;17.50;14.65;;;;;;;6.22;nan;95959.22;5019276;28;20206;-59
2022/12/29 02:08:59;;;;;;;16.45;13.55;;;;;;;6.20;nan;95950.78;5019808;28;20805;-62
2022/12/29 02:11:29;;;;;;;20.05;14.10;;;;;;;6.29;nan;95955.00;5020037;28;20212;-61
2022/12/29 02:13:57;;;;;;;20.55;14.57;;;;;;;6.26;nan;95952.47;5021016;28;20680;-60
2022/12/29 02:16:38;;;;;;;18.33;14.80;;;;;;;6.25;nan;95953.31;5026447;28;20201;-59
2022/12/29 02:19:25;;;;;;;18.65;14.73;;;;;;;6.01;nan;95944.94;5044736;28;20212;-61
2022/12/29 02:22:09;;;;;;;20.60;14.38;;;;;;;6.07;nan;95952.53;5047000;28;20241;-59
2022/12/29 02:25:12;;;;;;;20.30;13.73;;;;;;;6.19;nan;95953.34;5045959;28;20207;-60
2022/12/29 02:27:53;;;;;;;21.90;14.35;;;;;;;5.99;nan;95946.63;5047424;28;20209;-59
2022/12/29 02:30:45;;;;;;;18.92;13.98;;;;;;;5.83;nan;95944.97;5046207;28;20764;-59
2022/12/29 02:33:24;;;;;;;16.45;13.82;;;;;;;5.88;nan;95943.28;5036345;28;20208;-59
2022/12/29 02:35:58;;;;;;;17.83;13.60;;;;;;;5.93;nan;95948.34;5045726;28;20205;-60
2022/12/29 02:38:48;;;;;;;18.63;12.70;;;;;;;5.90;nan;95960.97;5046078;28;20201;-59
2022/12/29 02:41:23;;;;;;;19.85;13.27;;;;;;;6.09;nan;95947.47;5046317;28;20213;-60
2022/12/29 02:43:57;;;;;;;20.55;13.57;;;;;;;6.17;nan;95955.03;5046321;28;22158;-60
2022/12/29 02:46:34;;;;;;;17.92;13.73;;;;;;;6.15;nan;95950.00;5046582;28;20395;-60
2022/12/29 02:49:07;;;;;;;16.50;13.57;;;;;;;6.13;nan;95950.00;5045371;28;20860;-59
2022/12/29 02:51:40;;;;;;;20.70;14.07;;;;;;;6.17;nan;95944.94;5046359;28;20206;-59
2022/12/29 02:56:51;;;;;;;20.00;13.80;;;;;;;6.18;nan;95939.06;5046814;28;20713;-60
2022/12/29 02:59:18;;;;;;;15.77;13.57;;;;;;;6.19;nan;95948.31;5045715;28;20210;-61
2022/12/29 03:02:20;;;;;;;22.42;13.45;;;;;;;6.07;nan;95907.09;5045697;28;20205;-60
2022/12/29 03:04:59;;;;;;;18.25;13.95;;;;;;;6.31;nan;95933.94;5045701;28;20312;-58
2022/12/29 03:07:32;;;;;;;18.63;13.55;;;;;;;6.30;nan;95934.78;5047017;28;20267;-59
2022/12/29 03:10:05;;;;;;;17.55;13.57;;;;;;;6.27;nan;95927.22;5045607;28;20270;-59
2022/12/29 03:18:23;;;;;;;15.30;13.20;;;;;;;6.43;nan;95928.03;5046516;28;20208;-60
2022/12/29 03:20:55;;;;;;;22.27;14.07;;;;;;;6.45;nan;95928.84;5045736;28;20228;-60
2022/12/29 03:23:24;;;;;;;15.98;12.68;;;;;;;6.47;nan;95919.56;5047322;28;20301;-60
2022/12/29 03:25:57;;;;;;;17.60;13.27;;;;;;;6.46;nan;95928.00;5044846;28;20209;-60
2022/12/29 03:28:27;;;;;;;14.73;13.23;;;;;;;6.34;nan;95920.47;5045585;28;20229;-60
2022/12/29 03:30:54;;;;;;;26.52;15.65;;;;;;;6.34;nan;95931.41;5046423;28;20213;-61
2022/12/29 03:33:25;;;;;;;19.75;15.18;;;;;;;6.20;nan;95935.66;5045385;28;20788;-60
2022/12/29 03:35:59;;;;;;;22.35;14.15;;;;;;;6.03;nan;95932.34;5044822;28;20221;-59
2022/12/29 03:38:34;;;;;;;19.65;15.27;;;;;;;5.94;nan;95927.31;5047336;28;20201;-61
2022/12/29 03:41:05;;;;;;;17.63;14.68;;;;;;;5.87;nan;95928.97;5046254;28;20213;-59
2022/12/29 03:43:32;;;;;;;17.67;15.65;;;;;;;5.79;nan;95928.13;5047375;28;20206;-58
2022/12/29 03:45:59;;;;;;;23.58;15.15;;;;;;;5.65;nan;95920.59;5049515;28;20206;-61
2022/12/29 03:48:27;;;;;;;22.13;15.50;;;;;;;5.74;nan;95935.72;5049809;28;20221;-64
2022/12/29 03:50:54;;;;;;;22.52;15.20;;;;;;;5.69;nan;95942.44;5049386;28;20225;-60
2022/12/29 03:53:21;;;;;;;27.35;15.90;;;;;;;5.61;nan;95948.34;5050424;28;20197;-60
2022/12/29 03:55:47;;;;;;;22.58;15.82;;;;;;;5.54;nan;95944.13;5049760;28;20232;-59
2022/12/29 03:58:14;;;;;;;18.50;14.77;;;;;;;5.41;nan;95951.72;5048534;28;20209;-60
2022/12/29 04:00:41;;;;;;;22.55;15.15;;;;;;;5.37;nan;95955.06;5049750;28;20213;-60
2022/12/29 04:03:07;;;;;;;18.30;14.45;;;;;;;5.30;nan;95955.88;5049492;28;20606;-61
2022/12/29 04:05:36;;;;;;;23.02;15.57;;;;;;;5.23;nan;95961.75;5049647;28;20205;-60
2022/12/29 04:08:02;;;;;;;20.67;15.55;;;;;;;5.29;nan;95951.69;5050014;28;20206;-61
2022/12/29 04:10:29;;;;;;;19.10;14.65;;;;;;;5.15;nan;95955.88;5050226;28;20205;-60
2022/12/29 04:12:56;;;;;;;20.63;15.25;;;;;;;4.92;nan;95955.84;5050734;28;20220;-61
2022/12/29 04:15:24;;;;;;;23.67;15.50;;;;;;;5.00;nan;95958.34;5050586;28;20236;-60
2022/12/29 04:17:50;;;;;;;20.48;15.10;;;;;;;5.04;nan;95949.97;5049943;28;20208;-61
2022/12/29 04:23:03;;;;;;;25.00;15.60;;;;;;;4.88;nan;95958.34;5048786;28;20278;-60
2022/12/29 04:25:31;;;;;;;22.88;15.57;;;;;;;4.88;nan;95955.81;5050332;28;20258;-60
2022/12/29 04:27:58;;;;;;;27.17;15.90;;;;;;;5.00;nan;95954.16;5049594;28;20205;-60
2022/12/29 04:30:24;;;;;;;20.20;15.23;;;;;;;4.96;nan;95966.72;5049139;28;20216;-59
2022/12/29 04:32:51;;;;;;;19.35;15.25;;;;;;;4.94;nan;95964.25;5049825;28;20223;-60
2022/12/29 04:35:18;;;;;;;20.83;14.98;;;;;;;4.92;nan;95973.47;5049470;28;20236;-61
2022/12/29 04:37:44;;;;;;;24.70;15.48;;;;;;;4.90;nan;95970.09;5049580;28;20208;-61
2022/12/29 04:40:13;;;;;;;23.45;16.08;;;;;;;4.75;nan;95972.53;5049175;28;20205;-59
2022/12/29 04:42:40;;;;;;;21.50;15.88;;;;;;;4.73;nan;95974.22;5049720;28;20205;-61
2022/12/29 04:45:08;;;;;;;22.85;16.13;;;;;;;4.70;nan;95977.56;5048581;28;20262;-60
2022/12/29 04:47:34;;;;;;;26.25;16.30;;;;;;;4.56;nan;95966.63;5049919;28;20236;-61
2022/12/29 04:50:01;;;;;;;21.75;15.38;;;;;;;4.60;nan;95977.53;5048037;28;20298;-60
2022/12/29 04:52:28;;;;;;;28.73;16.73;;;;;;;4.64;nan;95985.13;5049209;28;20206;-60
2022/12/29 04:54:55;;;;;;;25.73;15.68;;;;;;;4.67;nan;95979.25;5049630;28;20286;-59
2022/12/29 04:57:23;;;;;;;23.80;16.73;;;;;;;4.62;nan;95988.47;5050240;28;20205;-64
2022/12/29 04:59:49;;;;;;;23.25;15.60;;;;;;;4.62;nan;95986.78;5048832;28;20206;-61
2022/12/29 05:02:16;;;;;;;32.55;17.05;;;;;;;4.53;nan;95989.25;5049542;28;20601;-59
2022/12/29 05:04:43;;;;;;;29.55;16.65;;;;;;;4.57;nan;95993.47;5049506;28;20228;-59
2022/12/29 05:07:10;;;;;;;24.25;17.05;;;;;;;4.45;nan;95961.50;5049191;28;20570;-60
2022/12/29 05:09:36;;;;;;;27.60;18.17;;;;;;;4.67;nan;95987.66;5047535;28;20216;-60
2022/12/29 05:12:03;;;;;;;28.02;17.60;;;;;;;4.67;nan;95989.31;5049263;28;22371;-62
2022/12/29 05:14:31;;;;;;;25.70;17.70;;;;;;;4.77;nan;95996.91;5049802;28;20236;-60
2022/12/29 05:20:20;;;;;;;31.65;18.15;;;;;;;4.89;nan;95997.78;5047876;28;20636;-59
2022/12/29 05:22:47;;;;;;;28.52;18.05;;;;;;;4.99;nan;95997.81;5049841;28;20250;-60
2022/12/29 05:25:13;;;;;;;24.70;18.23;;;;;;;5.13;nan;95995.34;5048756;28;20686;-66
2022/12/29 05:27:40;;;;;;;26.73;17.42;;;;;;;5.14;nan;95997.03;5049745;28;20212;-60
2022/12/29 05:30:10;;;;;;;25.70;18.00;;;;;;;5.23;nan;95983.59;5047063;28;20538;-59
2022/12/29 05:32:36;;;;;;;26.60;17.13;;;;;;;5.31;nan;95989.50;5048382;28;20217;-59
2022/12/29 05:35:04;;;;;;;25.23;17.38;;;;;;;5.32;nan;95993.69;5048304;28;20237;-59
2022/12/29 05:37:30;;;;;;;28.67;18.08;;;;;;;5.31;nan;95987.81;5048457;28;20631;-59
2022/12/29 05:39:59;;;;;;;31.30;18.08;;;;;;;5.44;nan;95993.72;5048394;28;20205;-58
2022/12/29 05:42:25;;;;;;;28.30;17.80;;;;;;;5.43;nan;95999.59;5047953;28;20709;-59
2022/12/29 05:44:53;;;;;;;27.63;17.77;;;;;;;5.45;nan;95992.84;5047935;28;20201;-60
2022/12/29 05:47:21;;;;;;;25.63;17.67;;;;;;;5.47;nan;95991.19;5048110;28;20212;-60
2022/12/29 05:49:48;;;;;;;36.38;18.38;;;;;;;5.53;nan;95991.19;5044074;28;20205;-60
2022/12/29 05:52:45;;;;;;;35.80;20.20;;;;;;;5.60;nan;95992.03;5047961;28;20205;-60
2022/12/29 05:55:12;;;;;;;34.92;19.90;;;;;;;5.66;nan;95994.56;5048462;28;20290;-60
2022/12/29 05:57:39;;;;;;;44.47;25.42;;;;;;;5.46;nan;95965.13;5047698;28;20287;-59
2022/12/29 06:00:07;;;;;;;33.78;20.90;;;;;;;5.76;nan;96001.28;5046520;28;20694;-60
2022/12/29 06:02:36;;;;;;;37.45;18.02;;;;;;;5.81;nan;96000.44;5047834;28;20251;-60
2022/12/29 06:05:03;;;;;;;43.05;20.13;;;;;;;5.79;nan;96011.38;5048234;28;20202;-60
2022/12/29 06:07:30;;;;;;;28.05;19.02;;;;;;;5.78;nan;96002.97;5047423;28;20789;-60
2022/12/29 06:09:57;;;;;;;28.90;19.52;;;;;;;5.84;nan;96006.34;5048104;28;20226;-61
2022/12/29 06:12:24;;;;;;;30.40;19.75;;;;;;;5.99;nan;96014.75;5047613;28;20305;-60
2022/12/29 06:14:50;;;;;;;30.90;19.25;;;;;;;6.11;nan;96017.28;5047693;28;20221;-61
2022/12/29 06:17:17;;;;;;;32.13;20.77;;;;;;;6.10;nan;96015.59;5047513;28;20775;-59
2022/12/29 06:19:45;;;;;;;27.58;19.83;;;;;;;6.06;nan;96018.97;5046540;28;20214;-59
2022/12/29 06:22:13;;;;;;;31.20;20.98;;;;;;;6.05;nan;96013.91;5047487;28;20240;-59
2022/12/29 06:24:39;;;;;;;26.85;19.48;;;;;;;6.10;nan;96010.56;5047757;28;20210;-60
2022/12/29 06:27:06;;;;;;;32.85;18.73;;;;;;;6.26;nan;96000.44;5045924;28;20243;-60
2022/12/29 06:29:34;;;;;;;30.95;19.20;;;;;;;6.41;nan;96013.03;5048252;28;20213;-59
2022/12/29 06:32:01;;;;;;;29.20;19.13;;;;;;;6.40;nan;96008.84;5046322;28;20205;-60
2022/12/29 06:34:28;;;;;;;31.15;20.35;;;;;;;6.52;nan;96010.47;5047671;28;20222;-59
2022/12/29 06:36:56;;;;;;;33.33;18.45;;;;;;;6.60;nan;96009.63;5047783;28;20212;-66
2022/12/29 06:39:23;;;;;;;36.35;20.25;;;;;;;6.68;nan;96019.69;5047827;28;20209;-61
2022/12/29 06:41:53;;;;;;;44.20;18.77;;;;;;;6.96;nan;96012.84;5046746;28;20224;-59
2022/12/29 06:44:19;;;;;;;32.90;19.00;;;;;;;7.19;nan;96013.56;5047189;28;20194;-59
2022/12/29 06:46:46;;;;;;;29.92;19.33;;;;;;;7.31;nan;96020.25;5047073;28;20205;-60
2022/12/29 06:49:13;;;;;;;37.58;22.23;;;;;;;7.37;nan;96021.06;5048234;28;20220;-61
2022/12/29 06:51:39;;;;;;;47.28;22.98;;;;;;;7.10;nan;96018.69;5046724;28;20599;-60
2022/12/29 06:54:08;;;;;;;46.78;27.13;;;;;;;7.00;nan;96022.09;5045939;28;20216;-60
2022/12/29 06:56:34;;;;;;;45.78;25.60;;;;;;;6.97;nan;96011.97;5047133;28;20213;-60
2022/12/29 06:59:01;;;;;;;44.30;28.67;;;;;;;7.06;nan;96019.53;5047381;28;20540;-59
2022/12/29 07:01:28;;;;;;;44.42;30.42;;;;;;;7.07;nan;96022.06;5046939;28;20233;-60
2022/12/29 07:03:55;;;;;;;57.92;32.63;;;;;;;7.13;nan;96027.09;5046810;28;20202;-60
2022/12/29 07:06:22;;;;;;;59.38;31.27;;;;;;;7.38;nan;96030.34;5047348;28;20208;-58
2022/12/29 07:08:49;;;;;;;43.88;25.70;;;;;;;7.66;nan;96025.09;5047133;28;20266;-60
2022/12/29 07:11:17;;;;;;;41.10;26.30;;;;;;;7.57;nan;96002.38;5047186;28;20206;-60
2022/12/29 07:13:43;;;;;;;45.72;25.73;;;;;;;7.81;nan;96030.88;5046467;28;20216;-59
2022/12/29 07:16:10;;;;;;;41.00;25.35;;;;;;;8.05;nan;96027.31;5047338;28;20233;-60
2022/12/29 07:18:37;;;;;;;38.92;24.05;;;;;;;8.43;nan;96019.38;5051658;28;20782;-59
2022/12/29 07:21:05;;;;;;;37.42;22.92;;;;;;;8.81;nan;96025.75;5050971;28;20233;-59
2022/12/29 07:23:32;;;;;;;40.28;24.85;;;;;;;9.54;nan;96017.19;5050301;28;20589;-59
2022/12/29 07:26:02;;;;;;;37.33;23.55;;;;;;;10.73;nan;96011.00;5051863;28;20277;-60
2022/12/29 07:28:32;;;;;;;41.55;25.65;;;;;;;11.11;nan;96022.13;5050430;28;20336;-62
2022/12/29 07:30:58;;;;;;;35.83;23.65;;;;;;;11.06;nan;96018.84;5047579;28;20209;-59
2022/12/29 07:33:25;;;;;;;32.03;21.48;;;;;;;10.91;nan;96013.16;5050329;28;20229;-59
2022/12/29 07:35:52;;;;;;;33.20;22.02;;;;;;;10.99;nan;96018.13;5049981;28;20233;-59
2022/12/29 07:38:19;;;;;;;34.05;23.52;;;;;;;11.11;nan;96022.13;5051865;28;20201;-59
2022/12/29 07:40:46;;;;;;;30.88;21.63;;;;;;;10.85;nan;96015.84;5051606;28;20683;-59
2022/12/29 07:43:12;;;;;;;33.70;22.63;;;;;;;10.62;nan;96025.63;5050464;28;20198;-60
2022/12/29 07:45:41;;;;;;;39.40;25.52;;;;;;;10.47;nan;96019.09;5049979;28;21449;-59
2022/12/29 07:48:08;;;;;;;37.95;23.38;;;;;;;10.30;nan;96025.34;5050669;28;20205;-60
2022/12/29 07:50:35;;;;;;;32.38;19.15;;;;;;;10.10;nan;96029.03;5051335;28;20292;-63
2022/12/29 07:53:01;;;;;;;29.48;18.48;;;;;;;10.00;nan;96031.72;5049951;28;20205;-59
2022/12/29 07:55:28;;;;;;;25.58;17.90;;;;;;;9.85;nan;96032.81;5049929;28;20352;-60
2022/12/29 07:57:55;;;;;;;23.33;17.80;;;;;;;9.83;nan;96032.00;5050389;28;20711;-60
2022/12/29 08:00:22;;;;;;;25.00;18.10;;;;;;;10.11;nan;96035.78;5050118;28;20205;-59
2022/12/29 08:02:51;;;;;;;50.40;29.45;;;;;;;10.43;nan;96031.88;5049684;28;20220;-61
2022/12/29 08:05:18;;;;;;;30.77;18.73;;;;;;;10.50;nan;96033.47;5049928;28;20249;-60
2022/12/29 08:07:45;;;;;;;34.10;20.30;;;;;;;10.41;nan;96041.22;5050868;28;20244;-60
2022/12/29 08:10:13;;;;;;;35.00;20.60;;;;;;;10.26;nan;96038.97;5051365;28;20246;-60
2022/12/29 08:12:40;;;;;;;34.70;20.98;;;;;;;9.99;nan;96035.97;5049100;28;20221;-60
2022/12/29 08:15:08;;;;;;;32.65;20.88;;;;;;;9.96;nan;96041.09;5049263;28;20213;-62
2022/12/29 08:17:35;;;;;;;31.23;18.35;;;;;;;9.73;nan;96012.69;5049502;28;20670;-62
2022/12/29 08:20:04;;;;;;;46.85;29.15;;;;;;;10.09;nan;96031.59;5050083;28;20856;-59
2022/12/29 08:22:31;;;;;;;55.75;32.33;;;;;;;10.29;nan;96029.59;5048626;28;20245;-61
2022/12/29 08:24:58;;;;;;;32.00;20.55;;;;;;;10.58;nan;96031.63;5049639;28;20259;-59
2022/12/29 08:27:25;;;;;;;27.95;18.63;;;;;;;10.69;nan;96032.25;5049414;28;20878;-59
2022/12/29 08:29:51;;;;;;;28.38;19.45;;;;;;;10.97;nan;96026.63;5048681;28;20210;-59
2022/12/29 08:32:18;;;;;;;57.67;34.67;;;;;;;11.41;nan;96023.19;5048047;28;20702;-60
2022/12/29 08:34:46;;;;;;;33.25;21.35;;;;;;;11.88;nan;96038.25;5050330;28;20229;-61
2022/12/29 08:37:14;;;;;;;33.55;22.40;;;;;;;12.11;nan;96029.28;5049101;28;20680;-60
2022/12/29 08:39:40;;;;;;;36.45;20.30;;;;;;;12.22;nan;96033.22;5049762;28;20209;-62
2022/12/29 08:42:07;;;;;;;24.92;18.73;;;;;;;12.52;nan;96025.69;5048340;28;20206;-60
2022/12/29 08:44:34;;;;;;;23.45;16.63;;;;;;;12.98;nan;96029.56;5048395;28;20214;-61
2022/12/29 08:47:01;;;;;;;27.30;17.38;;;;;;;13.10;nan;96035.16;5048696;28;20212;-60
2022/12/29 08:49:27;;;;;;;27.52;20.02;;;;;;;13.01;nan;96034.56;5049508;28;20635;-59
2022/12/29 08:51:54;;;;;;;25.02;18.10;;;;;;;12.87;nan;96030.66;5049195;28;20206;-60
2022/12/29 08:54:22;;;;;;;23.58;18.55;;;;;;;12.81;nan;96022.38;5049289;28;20665;-59
2022/12/29 08:56:49;;;;;;;32.28;20.63;;;;;;;12.83;nan;96024.00;5048869;28;20294;-60
2022/12/29 08:59:16;;;;;;;26.05;20.30;;;;;;;12.71;nan;96016.66;5049123;28;20765;-60
2022/12/29 09:01:43;;;;;;;31.38;19.70;;;;;;;12.82;nan;96014.69;5047876;28;20209;-60
2022/12/29 09:04:09;;;;;;;38.70;25.13;;;;;;;12.96;nan;96006.63;5049493;28;20197;-60
2022/12/29 09:06:36;;;;;;;66.50;40.25;;;;;;;13.24;nan;96011.81;5049101;28;20201;-60
2022/12/29 09:09:03;;;;;;;40.53;26.40;;;;;;;13.50;nan;96004.25;5049349;28;22275;-60
2022/12/29 09:11:31;;;;;;;22.80;18.38;;;;;;;13.58;nan;96004.84;5048390;28;20212;-59
2022/12/29 09:13:58;;;;;;;25.85;18.35;;;;;;;13.59;nan;96003.97;5050226;28;20646;-62
2022/12/29 09:16:26;;;;;;;22.60;17.83;;;;;;;13.43;nan;95961.03;5049014;28;20325;-61
2022/12/29 09:18:53;;;;;;;23.20;16.30;;;;;;;13.79;nan;95994.84;5048990;28;21259;-61
2022/12/29 09:21:20;;;;;;;24.95;17.33;;;;;;;13.92;nan;96003.78;5049257;28;20770;-61
2022/12/29 09:23:48;;;;;;;23.92;18.50;;;;;;;13.91;nan;95999.56;5047499;28;20208;-61
2022/12/29 09:26:15;;;;;;;28.48;17.60;;;;;;;13.69;nan;95990.91;5049934;28;20266;-59
2022/12/29 09:28:44;;;;;;;25.13;18.33;;;;;;;13.67;nan;95995.22;5048222;28;20205;-61
2022/12/29 09:31:11;;;;;;;26.92;19.85;;;;;;;13.56;nan;95988.75;5048535;28;20202;-59
2022/12/29 09:33:37;;;;;;;33.72;23.88;;;;;;;13.70;nan;95992.56;5047249;28;20750;-60
2022/12/29 09:36:05;;;;;;;29.08;21.42;;;;;;;13.68;nan;95981.56;5048329;28;20229;-61
2022/12/29 09:38:32;;;;;;;29.88;21.02;;;;;;;13.97;nan;95984.03;5047764;28;20259;-62
2022/12/29 09:41:06;;;;;;;28.67;19.85;;;;;;;14.11;nan;95981.84;5048144;28;20212;-60
2022/12/29 09:44:01;;;;;;;24.75;20.38;;;;;;;14.01;nan;95975.41;5047579;28;20636;-61
2022/12/29 09:46:29;;;;;;;25.92;19.90;;;;;;;14.10;nan;95974.28;5049387;28;20259;-60
2022/12/29 09:49:07;;;;;;;32.53;20.98;;;;;;;14.11;nan;95966.53;5048557;28;20222;-59
2022/12/29 09:51:37;;;;;;;33.47;21.50;;;;;;;13.67;nan;95974.78;5047487;28;20213;-61
2022/12/29 09:54:20;;;;;;;30.00;20.92;;;;;;;13.29;nan;95966.59;5048481;28;20224;-60
2022/12/29 09:56:48;;;;;;;28.20;20.52;;;;;;;13.30;nan;95960.59;5047335;28;20697;-60
2022/12/29 09:59:21;;;;;;;31.80;21.17;;;;;;;13.32;nan;95956.28;5047852;28;20283;-60
2022/12/29 10:01:54;;;;;;;28.67;20.85;;;;;;;13.47;nan;95953.25;5048763;28;20210;-61
2022/12/29 10:04:21;;;;;;;30.52;20.90;;;;;;;13.54;nan;95948.81;5048266;28;20200;-61
2022/12/29 10:06:57;;;;;;;30.23;20.98;;;;;;;13.57;nan;95959.75;5048514;28;20202;-62
2022/12/29 10:09:33;;;;;;;21.67;18.30;;;;;;;13.10;nan;95948.41;5048186;28;20201;-61
2022/12/29 10:12:09;;;;;;;27.40;18.48;;;;;;;12.83;nan;95950.03;5047079;28;20256;-60
2022/12/29 10:14:57;;;;;;;27.98;19.92;;;;;;;12.50;nan;95950.94;5044182;28;20266;-60
2022/12/29 10:17:34;;;;;;;30.90;18.80;;;;;;;12.41;nan;95946.06;5046203;28;20229;-59
2022/12/29 10:20:21;;;;;;;51.20;34.13;;;;;;;12.30;nan;95943.00;5048129;28;20208;-60
2022/12/29 10:23:03;;;;;;;28.80;19.95;;;;;;;12.37;nan;95939.41;5046601;28;22480;-59
2022/12/29 10:25:35;;;;;;;35.13;23.10;;;;;;;12.10;nan;95929.06;5047916;28;20277;-59
2022/12/29 10:28:07;;;;;;;27.73;20.25;;;;;;;12.14;nan;95922.97;5047142;28;20213;-61
2022/12/29 10:30:36;;;;;;;32.47;20.85;;;;;;;12.25;nan;95936.28;5044520;28;20213;-60
2022/12/29 10:33:08;;;;;;;24.63;17.92;;;;;;;12.32;nan;95925.94;5046918;28;20205;-61
2022/12/29 10:35:38;;;;;;;27.83;17.42;;;;;;;12.45;nan;95932.38;5044771;28;20229;-60
2022/12/29 10:38:14;;;;;;;22.00;16.17;;;;;;;12.42;nan;95923.09;5046188;28;20214;-60
2022/12/29 10:40:44;;;;;;;23.60;17.38;;;;;;;12.49;nan;95911.84;5044019;28;20205;-60
2022/12/29 10:43:22;;;;;;;26.70;16.92;;;;;;;12.43;nan;95918.84;5046235;28;20201;-61
2022/12/29 10:45:52;;;;;;;36.03;22.52;;;;;;;12.52;nan;95923.69;5044755;28;20209;-60
2022/12/29 10:48:22;;;;;;;25.25;16.90;;;;;;;12.59;nan;95902.25;5045698;28;20202;-59
2022/12/29 10:50:50;;;;;;;19.70;14.98;;;;;;;12.30;nan;95902.22;5045403;28;20217;-61
2022/12/29 10:53:22;;;;;;;28.27;15.80;;;;;;;12.14;nan;95901.75;5043452;28;20708;-60
2022/12/29 10:55:51;;;;;;;23.63;16.63;;;;;;;11.94;nan;95909.91;5045642;28;20281;-59
2022/12/29 10:58:18;;;;;;;25.48;17.67;;;;;;;11.96;nan;95903.09;5045588;28;20213;-60
2022/12/29 11:00:53;;;;;;;24.33;16.92;;;;;;;11.92;nan;95897.22;5045916;28;20278;-61
2022/12/29 11:03:46;;;;;;;24.75;16.08;;;;;;;11.96;nan;95892.91;5044537;28;20209;-60
2022/12/29 11:06:20;;;;;;;27.25;17.63;;;;;;;12.12;nan;95889.09;5046776;28;20205;-61
2022/12/29 11:08:53;;;;;;;24.67;17.75;;;;;;;12.21;nan;95893.94;5044827;28;20197;-62
2022/12/29 11:11:25;;;;;;;29.40;18.00;;;;;;;12.24;nan;95881.09;5045067;28;20222;-61
2022/12/29 11:13:58;;;;;;;25.45;17.27;;;;;;;12.22;nan;95875.22;5044894;28;20205;-60
2022/12/29 11:16:34;;;;;;;27.77;17.83;;;;;;;12.34;nan;95868.97;5044915;28;20225;-60
2022/12/29 11:19:02;;;;;;;25.55;17.35;;;;;;;12.45;nan;95876.28;5046009;28;20554;-59
2022/12/29 11:21:33;;;;;;;22.90;18.15;;;;;;;12.53;nan;95874.38;5044625;28;20245;-60
2022/12/29 11:24:01;;;;;;;26.55;17.42;;;;;;;12.70;nan;95877.25;5045078;28;20288;-61
2022/12/29 11:26:29;;;;;;;25.83;18.30;;;;;;;12.57;nan;95865.75;5045884;28;20205;-60
2022/12/29 11:29:20;;;;;;;29.20;18.40;;;;;;;12.61;nan;95872.44;5045788;28;20205;-60
2022/12/29 11:31:50;;;;;;;28.02;18.90;;;;;;;12.71;nan;95873.84;5046184;28;20294;-59
2022/12/29 11:34:23;;;;;;;33.08;19.38;;;;;;;12.62;nan;95865.63;5045630;28;20237;-60
2022/12/29 11:36:51;;;;;;;31.67;20.88;;;;;;;12.45;nan;95863.53;5046325;28;20280;-59
2022/12/29 11:39:28;;;;;;;27.92;19.83;;;;;;;12.46;nan;95862.66;5046995;28;20206;-60
2022/12/29 11:41:55;;;;;;;31.80;19.13;;;;;;;12.47;nan;95857.53;5045045;28;20205;-60
2022/12/29 11:44:22;;;;;;;33.55;19.50;;;;;;;12.50;nan;95854.88;5046439;28;20213;-60
2022/12/29 11:46:52;;;;;;;26.17;18.08;;;;;;;12.30;nan;95861.44;5045671;28;20210;-60
2022/12/29 11:49:22;;;;;;;25.55;18.92;;;;;;;12.07;nan;95862.06;5047357;28;20209;-65
2022/12/29 11:51:51;;;;;;;27.05;18.23;;;;;;;12.11;nan;95858.56;5046207;28;20216;-60
2022/12/29 11:54:25;;;;;;;23.08;16.92;;;;;;;12.11;nan;95856.84;5045940;28;20213;-59
2022/12/29 11:56:52;;;;;;;24.67;17.67;;;;;;;12.03;nan;95858.75;5045953;28;20225;-60
2022/12/29 11:59:37;;;;;;;22.35;15.95;;;;;;;12.02;nan;95862.16;5046259;28;20221;-61
2022/12/29 12:02:33;;;;;;;22.13;17.20;;;;;;;11.89;nan;95855.72;5044703;28;20286;-60
2022/12/29 12:05:09;;;;;;;24.90;17.55;;;;;;;11.92;nan;95856.47;5049225;28;20209;-60
2022/12/29 12:07:41;;;;;;;25.77;18.65;;;;;;;11.95;nan;95857.28;5048667;28;20198;-61
2022/12/29 12:10:22;;;;;;;28.67;16.98;;;;;;;11.91;nan;95853.97;5050522;28;20197;-58
2022/12/29 12:12:54;;;;;;;29.45;18.02;;;;;;;11.97;nan;95853.81;5049285;28;20715;-60
2022/12/29 12:15:25;;;;;;;32.85;18.98;;;;;;;11.98;nan;95847.84;5050555;28;20201;-61
2022/12/29 12:17:59;;;;;;;23.10;17.92;;;;;;;11.81;nan;95848.28;5050403;28;20722;-60
2022/12/29 12:20:33;;;;;;;33.65;19.60;;;;;;;11.82;nan;95841.50;5048457;28;20573;-60
2022/12/29 12:23:09;;;;;;;30.70;17.27;;;;;;;11.79;nan;95839.84;5046616;28;20201;-62
2022/12/29 12:25:43;;;;;;;30.98;18.40;;;;;;;11.60;nan;95836.06;5047194;28;20266;-62
2022/12/29 12:28:16;;;;;;;24.98;18.23;;;;;;;11.55;nan;95836.19;5048001;28;20201;-61
2022/12/29 12:30:48;;;;;;;28.95;19.27;;;;;;;11.62;nan;95823.31;5048681;28;20198;-59
2022/12/29 12:33:23;;;;;;;34.03;19.15;;;;;;;11.59;nan;95825.06;5045853;28;20225;-60